Flight Track Log - Related Links

Times and Time Zones

All times are in EDT time to prevent confusion due to time zone crossing. See the GJS3618 flight status page for this flight to view local times or setup timezone preferences in your user account.

Time Position Orientation Groundspeed Altitude Reporting Facility
EDT Latitude Longitude Course Direction KTS MPH feet Rate Location/Type
Mon 09:06:37 AM 42.0000 -87.9500 66° East 167 192 1,700  Level Chicago TRACON
Mon 09:07:31 AM 42.0500 -87.9167 26° Northeast 221 254 3,700 2,182 Climbing Chicago TRACON
Mon 09:09:22 AM 42.0964 -87.7897 64° Northeast 250 288 7,700 2,372 Climbing Chicago Center
Mon 09:10:00 AM 42.2082 -87.2254 66° East  Level FlightAware Approximate
Mon 09:10:23 AM 42.1289 -87.6672 70° East 289 333 10,500  Level Chicago Center
Mon 09:11:00 AM 42.2546 -87.0863 66° East  Level FlightAware Approximate
Mon 09:11:25 AM 42.1567 -87.5556 71° East 312 359 13,100  Level Chicago Center
Mon 09:12:27 AM 42.1853 -87.4411 71° East 322 371 15,500 1,935 Climbing Chicago Center
Mon 09:13:29 AM 42.2167 -87.3231 70° East 334 384 17,100 1,355 Climbing Chicago Center
Mon 09:14:31 AM 42.2492 -87.1853 72° East 383 441 18,300 1,258 Climbing Chicago Center
Mon 09:15:33 AM 42.2806 -87.0403 74° East 402 463 19,700 1,742 Climbing Chicago Center
Mon 09:16:35 AM 42.2853 -86.8517 88° East 416 479 21,900 1,839 Climbing Chicago Center
Mon 09:17:37 AM 42.2869 -86.6919 89° East 424 488 23,500 1,355 Climbing Chicago Center
Mon 09:18:39 AM 42.2892 -86.5247 89° East 438 504 24,700 1,161 Climbing Chicago Center
Mon 09:19:41 AM 42.2914 -86.3572 89° East 445 512 25,900 1,113 Climbing Chicago Center
Mon 09:20:43 AM 42.2933 -86.1969 89° East 456 525 27,000 1,258 Climbing Chicago Center
Mon 09:21:45 AM 42.2953 -85.9914 89° East 460 529 28,500 1,306 Climbing Chicago Center
Mon 09:22:47 AM 42.2967 -85.8183 89° East 464 534 29,700 1,161 Climbing Chicago Center
Mon 09:23:49 AM 42.2975 -85.6453 90° East 465 535 30,900 1,113 Climbing Chicago Center
Mon 09:24:51 AM 42.2994 -85.4728 89° East 464 534 32,000 1,029 Climbing Chicago Center
Mon 09:26:09 AM 42.3011 -85.2414 89° East 473 544 33,300 1,043 Climbing Cleveland Center
Mon 09:27:09 AM 42.3019 -85.0672 90° East 468 539 34,400 1,050 Climbing Cleveland Center
Mon 09:28:09 AM 42.3083 -84.8964 87° East 456 525 35,400 1,000 Climbing Cleveland Center
Mon 09:29:09 AM 42.3189 -84.7228 85° East 456 525 36,400 750 Climbing Cleveland Center
Mon 09:30:09 AM 42.3336 -84.5411 84° East 456 525 36,900 300 Climbing Cleveland Center
Mon 09:31:09 AM 42.3481 -84.3650 84° East 461 531 37,000 50 Climbing Cleveland Center
Mon 09:32:09 AM 42.3592 -84.2083 84° East 461 531 37,000  Level Cleveland Center
Mon 09:33:09 AM 42.3772 -84.0350 82° East 461 531 37,000  Level Cleveland Center
Mon 09:34:09 AM 42.3906 -83.8614 84° East 461 531 37,000  Level Cleveland Center
Mon 09:35:09 AM 42.4058 -83.6850 83° East 461 531 37,000  Level Cleveland Center
Mon 09:36:09 AM 42.4186 -83.5111 84° East 461 531 37,000  Level Cleveland Center
Mon 09:37:09 AM 42.4314 -83.3400 84° East 461 531 37,000  Level Cleveland Center
Mon 09:38:09 AM 42.4458 -83.1633 84° East 461 531 37,000  Level Cleveland Center
Mon 09:39:09 AM 42.4578 -82.9922 85° East 461 531 37,000  Level Cleveland Center
Mon 09:40:09 AM 42.4697 -82.8208 85° East 461 531 37,000  Level Cleveland Center
Mon 09:41:09 AM 42.4811 -82.6497 85° East 461 531 37,000  Level Cleveland Center
Mon 09:42:09 AM 42.4925 -82.4811 85° East 456 525 37,000  Level Cleveland Center
Mon 09:43:09 AM 42.5033 -82.3125 85° East 456 525 37,000  Level Cleveland Center
Mon 09:44:09 AM 42.5142 -82.1436 85° East 451 519 37,000  Level Cleveland Center
Mon 09:45:09 AM 42.5247 -81.9778 85° East 451 519 37,000  Level Cleveland Center
Mon 09:46:09 AM 42.5369 -81.8061 84° East 446 513 37,000  Level Cleveland Center
Mon 09:47:09 AM 42.5492 -81.6258 85° East 441 507 37,000  Level Cleveland Center
Mon 09:48:09 AM 42.5589 -81.4569 85° East 441 507 37,000  Level Cleveland Center
Mon 09:49:09 AM 42.5664 -81.3078 86° East 441 507 37,000  Level Cleveland Center
Mon 09:50:09 AM 42.5778 -81.1358 85° East 441 507 37,000  Level Cleveland Center
Mon 09:51:09 AM 42.5867 -80.9694 86° East 441 507 37,000  Level Cleveland Center
Mon 09:52:10 AM 42.5956 -80.8031 86° East 441 507 37,000  Level Cleveland Center
Mon 09:53:10 AM 42.6039 -80.6397 86° East 441 507 37,000  Level Cleveland Center
Mon 09:54:09 AM 42.6144 -80.4731 85° East 441 507 37,000  Level Cleveland Center
Mon 09:55:09 AM 42.6203 -80.2897 87° East 441 507 37,000  Level Cleveland Center
Mon 09:56:09 AM 42.6281 -80.1233 86° East 441 507 37,000  Level Cleveland Center
Mon 09:57:09 AM 42.6397 -79.9567 85° East 441 507 37,000  Level Cleveland Center
Mon 09:58:09 AM 42.6472 -79.7928 86° East 441 507 37,000  Level Cleveland Center
Mon 09:59:09 AM 42.6542 -79.6261 87° East 441 507 37,000  Level Cleveland Center
Mon 10:00:09 AM 42.6569 -79.4594 89° East 441 507 37,000 -50 Level Cleveland Center
Mon 10:01:09 AM 42.6656 -79.2928 86° East 441 507 36,900 -550 Descending Cleveland Center
Mon 10:02:09 AM 42.6742 -79.1261 86° East 441 507 35,900 -1,000 Descending Cleveland Center
Mon 10:03:09 AM 42.6781 -78.9564 88° East 441 507 34,900 -1,000 Descending Cleveland Center
Mon 10:04:09 AM 42.6839 -78.7897 87° East 441 507 33,900 -1,000 Descending Cleveland Center
Mon 10:05:09 AM 42.6894 -78.6228 87° East 441 507 32,900 -1,000 Descending Cleveland Center
Mon 10:06:09 AM 42.6950 -78.4589 87° East 441 507 31,900 -950 Descending Cleveland Center
Mon 10:07:09 AM 42.7000 -78.2864 88° East 441 507 31,000 -450 Descending Cleveland Center
Mon 10:08:09 AM 42.7069 -78.1136 87° East 446 513 31,000  Level Cleveland Center
Mon 10:09:09 AM 42.7097 -77.9639 89° East 446 513 31,000  Level Cleveland Center
Mon 10:10:09 AM 42.7164 -77.7939 87° East 441 507 31,000  Level Cleveland Center
Mon 10:11:09 AM 42.7181 -77.6186 89° East 447 514 31,000  Level Cleveland Center
Mon 10:12:09 AM 42.7239 -77.4458 87° East 452 520 31,000 -250 Level Cleveland Center
Mon 10:13:09 AM 42.7275 -77.2761 88° East 452 520 30,500 -750 Descending Cleveland Center
Mon 10:14:25 AM 42.7314 -77.0653 88° East 436 502 29,300 -662 Descending Boston Center
Mon 10:15:25 AM 42.7342 -76.8958 89° East 436 502 29,000 -150 Descending Boston Center
Mon 10:16:25 AM 42.7383 -76.7292 88° East 441 507 29,000  Level Boston Center
Mon 10:17:25 AM 42.7406 -76.5597 89° East 441 507 29,000  Level Boston Center
Mon 10:18:25 AM 42.7422 -76.3928 89° East 441 507 29,000  Level Boston Center
Mon 10:19:25 AM 42.7467 -76.2036 88° East 441 507 29,000  Level Boston Center
Mon 10:20:25 AM 42.7478 -76.0369 89° East 441 507 29,000 -150 Level Boston Center
Mon 10:21:25 AM 42.7489 -75.8644 89° East 441 507 28,700 -1,400 Descending Boston Center
Mon 10:22:25 AM 42.7500 -75.6892 89° East 446 513 26,200 -2,450 Descending Boston Center
Mon 10:23:25 AM 42.7525 -75.5222 89° East 446 513 23,800 -2,300 Descending Boston Center
Mon 10:24:25 AM 42.7528 -75.3583 90° East 440 506 21,600 -2,200 Descending Boston Center
Mon 10:25:25 AM 42.7525 -75.2000 90° East 425 489 19,400 -2,100 Descending Boston Center
Mon 10:26:25 AM 42.7539 -75.0472 89° East 414 476 17,400 -2,100 Descending Boston Center
Mon 10:27:25 AM 42.7550 -74.9031 89° East 401 461 15,200 -2,250 Descending Boston Center
Mon 10:28:25 AM 42.7539 -74.7644 91° East 368 423 12,900 -2,165 Descending Boston Center
Mon 10:29:02 AM 42.7533 -74.6825 91° East 344 396 11,700 -1,600 Descending Boston Center
Mon 10:29:25 AM 42.7522 -74.6372 92° East 344 396 11,300 -689 Descending Boston Center
Mon 10:30:03 AM 42.7536 -74.5581 89° East 329 379 11,000 -600 Descending Boston Center
Mon 10:30:25 AM 42.7544 -74.5156 88° East 326 375 10,700 -1,180 Descending Boston Center
Mon 10:31:04 AM 42.7661 -74.4481 77° East 298 343 9,800 -1,300 Descending Boston Center
Mon 10:31:25 AM 42.7753 -74.4089 72° East 306 352 9,400 -1,400 Descending Boston Center
Mon 10:32:04 AM 42.7950 -74.3417 68° East 291 335 8,400 -1,600 Descending Boston Center
Mon 10:32:25 AM 42.8019 -74.3050 76° East 292 336 7,800 -1,475 Descending Boston Center
Mon 10:33:05 AM 42.8197 -74.2403 69° East 289 333 6,900 -1,400 Descending Boston Center
Mon 10:33:25 AM 42.8286 -74.2011 73° East 286 329 6,400 -1,574 Descending Boston Center
Mon 10:34:06 AM 42.8442 -74.1392 71° East 281 323 5,300 -1,600 Descending Boston Center
Mon 10:34:25 AM 42.8531 -74.1025 72° East 280 322 4,800 -1,500 Descending Boston Center
Mon 10:35:06 AM 42.8728 -74.0408 66° East 270 311 3,800 -1,300 Descending Boston Center
Mon 10:35:25 AM 42.8794 -74.0097 74° East 274 315 3,500 -787 Descending Boston Center
Mon 10:36:07 AM 42.8925 -73.9564 72° East 234 269 3,000 -286 Descending Boston Center
Mon 10:36:49 AM 42.9036 -73.9111 71° East 235 270 3,100 -295 Climbing Boston Center
Mon 10:37:08 AM 42.9042 -73.8744 89° East 207 238 2,700 -1,100 Descending Boston Center
Mon 10:37:49 AM 42.8817 -73.8314 125° Southeast 184 212 2,000 -636 Descending Boston Center
Mon 10:38:14 AM 42.8650 -73.8225 159° South 169 194 2,000  Level Boston Center
Mon 10:38:49 AM 42.8656 -73.7800 89° East 173 199 2,000 -436 Level Boston Center
Mon 10:39:09 AM 42.8297 -73.8131 214° Southwest 129 148 1,600 -1,200 Descending Boston Center

Login

Don't have an account? Register now (free) for customized features, flight alerts, and more!